createdAt,value
2023-06-14T00:02:28.068Z,7.55
2023-06-14T00:05:18.621Z,8.30
2023-06-14T00:08:09.410Z,9.63
2023-06-14T00:10:57.975Z,9.55
2023-06-14T00:13:47.135Z,11.60
2023-06-14T00:16:36.852Z,12.40
2023-06-14T00:19:29.009Z,12.10
2023-06-14T00:22:19.960Z,10.65
2023-06-14T00:25:28.127Z,9.85
2023-06-14T00:28:17.888Z,10.02
2023-06-14T00:31:06.937Z,8.02
2023-06-14T00:33:55.529Z,7.78
2023-06-14T00:36:45.150Z,7.25
2023-06-14T00:39:35.685Z,7.03
2023-06-14T00:42:28.848Z,6.18
2023-06-14T00:45:18.974Z,5.72
2023-06-14T00:48:11.585Z,6.60
2023-06-14T00:51:03.412Z,6.32
2023-06-14T00:53:54.207Z,9.85
2023-06-14T00:56:46.617Z,11.45
2023-06-14T00:59:40.406Z,6.90
2023-06-14T01:02:29.878Z,8.65
2023-06-14T01:05:20.263Z,7.28
2023-06-14T01:08:25.346Z,8.23
2023-06-14T01:11:21.455Z,8.63
2023-06-14T01:14:15.813Z,7.25
2023-06-14T01:17:06.996Z,7.80
2023-06-14T01:19:59.272Z,7.63
2023-06-14T01:22:55.717Z,8.07
2023-06-14T01:25:45.737Z,8.75
2023-06-14T01:28:38.429Z,9.10
2023-06-14T01:31:31.790Z,8.70
2023-06-14T01:34:21.851Z,9.00
2023-06-14T01:37:13.203Z,8.20
2023-06-14T01:40:06.454Z,7.90
2023-06-14T01:42:56.352Z,8.00
2023-06-14T01:45:50.162Z,8.07
2023-06-14T01:48:39.941Z,7.72
2023-06-14T01:51:34.583Z,7.47
2023-06-14T01:54:27.101Z,7.03
2023-06-14T01:57:17.666Z,8.73
2023-06-14T02:00:12.389Z,7.70
2023-06-14T02:03:02.597Z,8.20
2023-06-14T02:05:50.573Z,8.18
2023-06-14T02:08:45.317Z,8.07
2023-06-14T02:11:34.025Z,8.07
2023-06-14T02:14:30.429Z,7.93
2023-06-14T02:17:18.639Z,9.02
2023-06-14T02:20:11.091Z,8.20
2023-06-14T02:23:04.002Z,9.75
2023-06-14T02:25:52.495Z,8.23
2023-06-14T02:28:40.943Z,9.68
2023-06-14T02:31:31.614Z,8.75
2023-06-14T02:34:21.477Z,9.00
2023-06-14T02:37:12.204Z,8.77
2023-06-14T02:40:02.174Z,7.95
2023-06-14T02:42:51.069Z,8.48
2023-06-14T02:45:40.026Z,7.90
2023-06-14T02:48:30.673Z,9.05
2023-06-14T02:51:19.389Z,7.22
2023-06-14T02:54:09.642Z,7.28
2023-06-14T02:57:00.367Z,9.35
2023-06-14T02:59:48.627Z,6.88
2023-06-14T03:02:43.888Z,7.07
2023-06-14T03:05:35.564Z,7.00
2023-06-14T03:08:28.603Z,6.78
2023-06-14T03:11:19.823Z,7.95
2023-06-14T03:14:10.123Z,11.02
2023-06-14T03:16:59.307Z,7.93
2023-06-14T03:19:47.977Z,8.02
2023-06-14T03:22:40.995Z,8.20
2023-06-14T03:25:31.459Z,8.40
2023-06-14T03:28:21.162Z,7.68
2023-06-14T03:31:10.248Z,7.25
2023-06-14T03:34:03.266Z,7.68
2023-06-14T03:36:53.268Z,8.55
2023-06-14T03:39:47.757Z,6.22
2023-06-14T03:42:39.060Z,9.68
2023-06-14T03:45:27.524Z,6.57
2023-06-14T03:48:16.470Z,6.18
2023-06-14T03:51:06.785Z,7.82
2023-06-14T03:54:30.216Z,8.63
2023-06-14T03:57:17.978Z,6.32
2023-06-14T04:00:08.966Z,6.40
2023-06-14T04:03:02.773Z,6.95
2023-06-14T04:05:52.826Z,6.30
2023-06-14T04:08:44.409Z,6.57
2023-06-14T04:11:36.616Z,6.60
2023-06-14T04:14:34.360Z,8.07
2023-06-14T04:17:30.270Z,7.47
2023-06-14T04:20:29.896Z,6.05
2023-06-14T04:23:25.466Z,5.97
2023-06-14T04:26:15.045Z,6.47
2023-06-14T04:29:03.807Z,6.80
2023-06-14T04:31:57.060Z,7.03
2023-06-14T04:34:46.012Z,6.30
2023-06-14T04:37:35.255Z,6.60
2023-06-14T04:40:26.096Z,6.60
2023-06-14T04:43:18.603Z,6.00
2023-06-14T04:46:10.970Z,6.32
2023-06-14T04:49:19.152Z,6.07
2023-06-14T04:52:12.119Z,6.13
2023-06-14T04:55:33.434Z,6.25
2023-06-14T04:58:21.609Z,5.90
2023-06-14T05:01:14.755Z,7.25
2023-06-14T05:04:05.526Z,5.80
2023-06-14T05:06:57.868Z,8.80
2023-06-14T05:09:48.065Z,7.35
2023-06-14T05:12:36.948Z,7.13
2023-06-14T05:15:30.304Z,8.52
2023-06-14T05:18:21.403Z,8.05
2023-06-14T05:21:10.562Z,7.57
2023-06-14T05:24:01.713Z,6.20
2023-06-14T05:33:01.332Z,7.07
2023-06-14T05:35:52.043Z,9.85
2023-06-14T05:38:41.189Z,12.15
2023-06-14T05:41:48.826Z,7.53
2023-06-14T05:44:39.083Z,9.05
2023-06-14T05:47:29.641Z,10.43
2023-06-14T05:50:18.464Z,6.90
2023-06-14T05:53:09.066Z,6.75
2023-06-14T05:55:58.793Z,7.00
2023-06-14T05:58:49.632Z,7.40
2023-06-14T06:01:45.948Z,7.82
2023-06-14T06:04:39.306Z,8.10
2023-06-14T06:07:38.127Z,9.70
2023-06-14T06:10:29.186Z,6.32
2023-06-14T06:13:17.994Z,6.95
2023-06-14T06:16:08.398Z,8.00
2023-06-14T06:19:00.101Z,11.20
2023-06-14T06:21:49.690Z,6.30
2023-06-14T06:24:38.454Z,6.75
2023-06-14T06:27:27.861Z,5.78
2023-06-14T06:30:26.162Z,5.60
2023-06-14T06:33:26.042Z,9.85
2023-06-14T06:36:16.908Z,7.22
2023-06-14T06:39:11.362Z,12.65
2023-06-14T06:42:00.538Z,12.68
2023-06-14T06:44:50.301Z,8.27
2023-06-14T06:47:39.051Z,6.35
2023-06-14T06:50:36.716Z,7.97
2023-06-14T06:53:39.197Z,8.50
2023-06-14T06:56:30.702Z,6.03
2023-06-14T06:59:22.320Z,6.15
2023-06-14T07:02:11.928Z,7.57
2023-06-14T07:05:07.696Z,12.02
2023-06-14T07:08:08.022Z,9.68
2023-06-14T07:10:57.226Z,6.22
2023-06-14T07:13:49.751Z,5.25
2023-06-14T07:16:41.262Z,4.85
2023-06-14T07:19:33.737Z,4.70
2023-06-14T07:22:24.575Z,5.25
2023-06-14T07:25:16.930Z,5.97
2023-06-14T07:28:13.306Z,4.60
2023-06-14T07:31:09.579Z,6.75
2023-06-14T07:33:57.878Z,8.10
2023-06-14T07:36:50.451Z,6.05
2023-06-14T07:42:29.126Z,5.47
2023-06-14T07:45:21.150Z,7.90
2023-06-14T07:48:10.491Z,6.30
2023-06-14T07:50:58.670Z,8.63
2023-06-14T07:53:47.774Z,8.55
2023-06-14T07:56:38.216Z,13.48
2023-06-14T07:59:30.143Z,9.98
2023-06-14T08:02:19.454Z,13.63
2023-06-14T08:05:14.134Z,8.55
2023-06-14T08:08:04.424Z,6.25
2023-06-14T08:10:55.403Z,15.77
2023-06-14T08:13:46.964Z,21.00
2023-06-14T08:16:37.909Z,22.90
2023-06-14T08:19:30.172Z,20.55
2023-06-14T08:22:22.137Z,7.78
2023-06-14T08:25:16.722Z,5.00
2023-06-14T08:28:07.610Z,11.77
2023-06-14T08:34:05.533Z,7.55
2023-06-14T08:36:57.451Z,7.95
2023-06-14T08:39:52.443Z,7.07
2023-06-14T08:42:49.430Z,7.20
2023-06-14T08:45:53.492Z,10.02
2023-06-14T08:48:43.559Z,8.57
2023-06-14T08:51:46.019Z,10.65
2023-06-14T08:54:47.350Z,7.03
2023-06-14T08:57:40.805Z,5.60
2023-06-14T09:00:49.940Z,4.70
2023-06-14T09:03:47.279Z,4.63
2023-06-14T09:06:55.976Z,4.75
2023-06-14T09:10:07.137Z,5.47
2023-06-14T09:12:57.241Z,8.02
2023-06-14T09:15:48.459Z,5.38
2023-06-14T09:19:00.204Z,6.30
2023-06-14T09:22:01.281Z,5.38
2023-06-14T09:24:51.082Z,7.10
2023-06-14T09:27:41.000Z,6.82
2023-06-14T09:30:33.003Z,7.07
2023-06-14T09:33:21.802Z,4.90
2023-06-14T09:36:21.733Z,5.78
2023-06-14T09:39:15.081Z,7.65
2023-06-14T09:42:04.531Z,6.97
2023-06-14T09:44:58.743Z,6.25
2023-06-14T09:48:04.286Z,5.85
2023-06-14T09:51:11.065Z,4.68
2023-06-14T09:54:05.656Z,5.38
2023-06-14T09:56:58.070Z,5.43
2023-06-14T09:59:58.142Z,4.55
2023-06-14T10:03:01.794Z,4.63
2023-06-14T10:06:04.654Z,7.00
2023-06-14T10:08:57.219Z,5.18
2023-06-14T10:11:50.621Z,5.70
2023-06-14T10:14:50.806Z,5.60
2023-06-14T10:17:56.964Z,4.82
2023-06-14T10:21:08.860Z,6.05
2023-06-14T10:24:12.875Z,4.20
2023-06-14T10:27:15.262Z,4.47
2023-06-14T10:30:16.232Z,4.93
2023-06-14T10:33:11.411Z,4.20
2023-06-14T10:36:43.267Z,4.57
2023-06-14T10:39:33.227Z,8.33
2023-06-14T10:42:23.993Z,5.15
2023-06-14T10:45:18.542Z,4.18
2023-06-14T10:48:09.019Z,5.53
2023-06-14T10:54:14.698Z,6.40
2023-06-14T10:57:02.807Z,5.90
2023-06-14T10:59:51.305Z,4.32
2023-06-14T11:03:31.707Z,5.57
2023-06-14T11:06:30.166Z,4.22
2023-06-14T11:10:15.337Z,6.22
2023-06-14T11:13:04.157Z,5.38
2023-06-14T11:16:08.957Z,4.65
2023-06-14T11:19:03.099Z,6.53
2023-06-14T11:21:52.477Z,6.13
2023-06-14T11:24:42.159Z,5.43
2023-06-14T11:27:32.268Z,4.28
2023-06-14T11:30:23.274Z,5.20
2023-06-14T11:33:14.160Z,4.72
2023-06-14T11:36:13.502Z,5.07
2023-06-14T11:39:17.915Z,6.32
2023-06-14T11:42:09.645Z,5.50
2023-06-14T11:45:07.893Z,6.45
2023-06-14T11:48:03.730Z,9.70
2023-06-14T11:50:54.201Z,7.93
2023-06-14T11:53:47.771Z,7.05
2023-06-14T11:56:52.279Z,7.70
2023-06-14T11:59:42.187Z,6.43
2023-06-14T12:02:35.723Z,5.07
2023-06-14T12:05:25.269Z,7.38
2023-06-14T12:08:23.595Z,7.97
2023-06-14T12:11:24.905Z,8.05
2023-06-14T12:14:14.163Z,7.65
2023-06-14T12:17:13.787Z,6.60
2023-06-14T12:20:15.689Z,8.75
2023-06-14T12:23:07.977Z,7.47
2023-06-14T12:26:06.186Z,8.98
2023-06-14T12:28:57.240Z,8.20
2023-06-14T12:31:47.545Z,7.13
2023-06-14T12:37:55.798Z,8.75
2023-06-14T12:40:44.997Z,8.65
2023-06-14T12:43:45.087Z,10.45
2023-06-14T12:46:37.487Z,6.97
2023-06-14T12:49:28.815Z,5.72
2023-06-14T12:52:20.756Z,6.72
2023-06-14T12:55:13.425Z,4.53
2023-06-14T12:58:02.372Z,5.72
2023-06-14T13:00:51.121Z,8.30
2023-06-14T13:03:43.434Z,3.45
2023-06-14T13:09:36.999Z,3.35
2023-06-14T13:12:26.766Z,4.68
2023-06-14T13:15:15.649Z,4.32
2023-06-14T13:18:04.483Z,3.92
2023-06-14T13:20:54.697Z,3.28
2023-06-14T13:23:50.978Z,5.28
2023-06-14T13:26:42.952Z,3.75
2023-06-14T13:29:32.511Z,4.85
2023-06-14T13:32:24.649Z,3.97
2023-06-14T13:35:13.657Z,3.75
2023-06-14T13:38:18.611Z,3.85
2023-06-14T13:41:09.820Z,4.75
2023-06-14T13:43:58.728Z,4.07
2023-06-14T13:46:50.767Z,3.53
2023-06-14T13:52:32.377Z,5.25
2023-06-14T13:55:25.563Z,3.40
2023-06-14T13:58:42.517Z,3.95
2023-06-14T14:01:30.934Z,5.45
2023-06-14T14:04:21.368Z,3.25
2023-06-14T14:07:14.505Z,3.67
2023-06-14T14:10:08.213Z,3.60
2023-06-14T14:12:59.213Z,4.28
2023-06-14T14:15:48.721Z,4.10
2023-06-14T14:18:37.436Z,3.47
2023-06-14T14:21:26.141Z,4.00
2023-06-14T14:24:14.492Z,5.30
2023-06-14T14:27:06.857Z,5.68
2023-06-14T14:29:57.158Z,5.20
2023-06-14T14:32:49.442Z,3.58
2023-06-14T14:35:41.185Z,4.03
2023-06-14T14:38:30.085Z,4.82
2023-06-14T14:41:18.722Z,2.90
2023-06-14T14:44:18.306Z,5.05
2023-06-14T14:47:09.735Z,3.35
2023-06-14T14:49:59.459Z,4.13
2023-06-14T14:52:49.398Z,3.28
2023-06-14T14:58:41.194Z,5.90
2023-06-14T15:01:29.876Z,4.50
2023-06-14T15:04:23.500Z,5.43
2023-06-14T15:07:12.058Z,8.85
2023-06-14T15:10:03.259Z,5.85
2023-06-14T15:12:53.320Z,3.20
2023-06-14T15:15:43.736Z,3.78
2023-06-14T15:18:36.969Z,3.25
2023-06-14T15:21:32.417Z,4.57
2023-06-14T15:24:38.005Z,7.32
2023-06-14T15:27:33.301Z,6.70
2023-06-14T15:30:36.500Z,4.80
2023-06-14T15:33:24.931Z,9.18
2023-06-14T15:36:16.377Z,3.88
2023-06-14T15:39:06.572Z,4.37
2023-06-14T15:41:55.002Z,4.30
2023-06-14T15:44:44.250Z,3.53
2023-06-14T15:47:46.831Z,4.68
2023-06-14T15:50:38.702Z,5.60
2023-06-14T15:53:31.867Z,3.33
2023-06-14T15:56:22.228Z,3.38
2023-06-14T15:59:13.273Z,3.47
2023-06-14T16:02:04.273Z,3.63
2023-06-14T16:04:55.911Z,4.43
2023-06-14T16:07:47.668Z,3.13
2023-06-14T16:10:36.182Z,4.28
2023-06-14T16:13:27.294Z,3.85
2023-06-14T16:16:16.698Z,4.53
2023-06-14T16:19:22.315Z,4.28
2023-06-14T16:22:14.516Z,5.25
2023-06-14T16:25:07.952Z,5.18
2023-06-14T16:31:10.588Z,6.35
2023-06-14T16:34:14.507Z,4.53
2023-06-14T16:37:07.168Z,3.42
2023-06-14T16:39:57.471Z,5.82
2023-06-14T16:42:53.544Z,4.50
2023-06-14T16:45:42.678Z,3.08
2023-06-14T16:48:35.521Z,3.42
2023-06-14T16:51:25.050Z,3.45
2023-06-14T16:54:13.853Z,3.22
2023-06-14T16:57:02.960Z,3.72
2023-06-14T16:59:52.150Z,3.45
2023-06-14T17:02:41.009Z,3.70
2023-06-14T17:05:32.855Z,4.53
2023-06-14T17:11:16.371Z,2.90
2023-06-14T17:14:07.540Z,3.42
2023-06-14T17:17:01.690Z,3.50
2023-06-14T17:19:53.716Z,3.90
2023-06-14T17:22:44.918Z,3.38
2023-06-14T17:25:34.444Z,4.00
2023-06-14T17:28:24.607Z,4.15
2023-06-14T17:31:18.320Z,4.45
2023-06-14T17:34:15.040Z,3.67
2023-06-14T17:37:08.428Z,5.32
2023-06-14T17:40:02.301Z,3.28
2023-06-14T17:42:53.526Z,3.60
2023-06-14T17:45:48.955Z,4.10
2023-06-14T17:48:41.617Z,4.40
2023-06-14T17:51:40.405Z,4.63
2023-06-14T17:54:29.508Z,4.25
2023-06-14T17:57:20.954Z,4.70
2023-06-14T18:00:13.241Z,3.60
2023-06-14T18:03:11.807Z,4.05
2023-06-14T18:06:06.760Z,3.72
2023-06-14T18:08:57.380Z,4.05
2023-06-14T18:11:48.366Z,5.95
2023-06-14T18:14:41.842Z,3.97
2023-06-14T18:17:34.191Z,3.58
2023-06-14T18:20:23.550Z,4.15
2023-06-14T18:23:13.964Z,6.25
2023-06-14T18:26:05.323Z,4.07
2023-06-14T18:29:02.807Z,5.20
2023-06-14T18:31:52.905Z,3.40
2023-06-14T18:34:41.997Z,3.33
2023-06-14T18:37:32.236Z,6.68
2023-06-14T18:40:25.147Z,7.13
2023-06-14T18:49:25.655Z,6.15
2023-06-14T18:52:15.868Z,5.68
2023-06-14T18:55:26.040Z,5.32
2023-06-14T18:58:30.227Z,5.00
2023-06-14T19:08:14.921Z,4.20
2023-06-14T19:11:04.865Z,3.67
2023-06-14T19:14:00.761Z,6.90
2023-06-14T19:17:07.392Z,6.78
2023-06-14T19:19:59.544Z,4.65
2023-06-14T19:35:55.183Z,21.50
2023-06-14T19:38:44.489Z,20.70
2023-06-14T19:44:45.648Z,12.98
2023-06-14T19:47:34.303Z,9.93
2023-06-14T19:53:56.255Z,11.30
2023-06-14T19:56:56.900Z,10.88
2023-06-14T19:59:46.060Z,10.50
2023-06-14T20:02:43.382Z,9.43
2023-06-14T20:05:35.154Z,8.57
2023-06-14T20:08:25.578Z,7.60
2023-06-14T20:11:33.235Z,7.43
2023-06-14T20:14:26.112Z,6.85
2023-06-14T20:17:34.104Z,7.63
2023-06-14T20:20:29.154Z,7.57
2023-06-14T20:23:20.315Z,10.13
2023-06-14T20:26:11.829Z,10.93
2023-06-14T20:29:02.347Z,8.98
2023-06-14T20:31:52.366Z,8.27
2023-06-14T20:34:42.378Z,7.40
2023-06-14T20:37:31.372Z,6.80
2023-06-14T20:40:24.393Z,6.50
2023-06-14T20:43:13.709Z,7.32
2023-06-14T20:46:08.509Z,6.47
2023-06-14T20:48:56.885Z,7.10
2023-06-14T20:51:53.225Z,5.60
2023-06-14T20:54:45.956Z,5.55
2023-06-14T20:57:34.714Z,5.45
2023-06-14T21:00:25.030Z,6.88
2023-06-14T21:03:16.485Z,8.27
2023-06-14T21:06:08.224Z,8.63
2023-06-14T21:08:57.598Z,7.43
2023-06-14T21:11:45.778Z,6.85
2023-06-14T21:14:37.157Z,6.85
2023-06-14T21:17:28.647Z,6.80
2023-06-14T21:20:20.856Z,6.80
2023-06-14T21:23:11.000Z,6.03
2023-06-14T21:25:59.842Z,5.75
2023-06-14T21:28:48.712Z,5.72
2023-06-14T21:31:37.359Z,5.28
2023-06-14T21:34:26.926Z,5.95
2023-06-14T21:37:16.783Z,5.32
2023-06-14T21:40:05.296Z,4.80
2023-06-14T21:42:54.251Z,4.70
2023-06-14T21:45:43.064Z,4.75
2023-06-14T21:48:31.908Z,5.28
2023-06-14T21:51:21.474Z,4.70
2023-06-14T21:57:22.494Z,5.72
2023-06-14T22:00:15.004Z,5.53
2023-06-14T22:03:04.536Z,5.90
2023-06-14T22:05:52.991Z,5.20
2023-06-14T22:08:42.722Z,4.65
2023-06-14T22:11:35.346Z,5.28
2023-06-14T22:14:25.789Z,4.07
2023-06-14T22:17:14.667Z,3.95
2023-06-14T22:20:06.805Z,4.60
2023-06-14T22:22:56.788Z,4.68
2023-06-14T22:25:46.230Z,4.28
2023-06-14T22:28:46.796Z,4.50
2023-06-14T22:31:38.546Z,4.00
2023-06-14T22:34:27.180Z,4.20
2023-06-14T22:37:19.439Z,4.85
2023-06-14T22:40:12.685Z,4.30
2023-06-14T22:43:01.570Z,4.20
2023-06-14T22:45:52.754Z,4.32
2023-06-14T22:48:47.007Z,4.30
2023-06-14T22:51:39.163Z,4.65
2023-06-14T22:54:31.275Z,3.85
2023-06-14T22:57:21.540Z,3.77
2023-06-14T23:00:12.949Z,5.57
2023-06-14T23:03:05.157Z,5.25
2023-06-14T23:05:54.320Z,4.65
2023-06-14T23:08:45.626Z,4.93
2023-06-14T23:11:34.793Z,4.47
2023-06-14T23:14:25.928Z,4.70
2023-06-14T23:17:14.615Z,4.90
2023-06-14T23:20:09.371Z,5.82
2023-06-14T23:22:58.672Z,4.25
2023-06-14T23:25:49.610Z,5.03
2023-06-14T23:28:38.606Z,6.00
2023-06-14T23:31:27.627Z,6.30
2023-06-14T23:34:16.223Z,6.53
2023-06-14T23:37:09.823Z,6.60
2023-06-14T23:39:57.792Z,5.10
2023-06-14T23:42:46.602Z,5.10
2023-06-14T23:45:35.743Z,5.95
2023-06-14T23:48:27.425Z,6.97
2023-06-14T23:51:16.775Z,6.15
2023-06-14T23:54:10.960Z,5.45
2023-06-14T23:57:01.760Z,4.57
2023-06-14T23:59:51.500Z,4.50
